sensor_id;sensor_type;location;lat;lon;timestamp;P1;durP1;ratioP1;P2;durP2;ratioP2
13222;SDS011;6676;45.192;5.722;2022-11-20T00:04:18;2.58;;;1.30;;
13222;SDS011;6676;45.192;5.722;2022-11-20T00:09:49;1.82;;;1.35;;
13222;SDS011;6676;45.192;5.722;2022-11-20T00:12:40;2.58;;;1.30;;
13222;SDS011;6676;45.192;5.722;2022-11-20T00:15:31;3.67;;;1.60;;
13222;SDS011;6676;45.192;5.722;2022-11-20T00:18:23;2.25;;;1.42;;
13222;SDS011;6676;45.192;5.722;2022-11-20T00:24:00;3.02;;;1.62;;
13222;SDS011;6676;45.192;5.722;2022-11-20T00:26:51;2.08;;;1.67;;
13222;SDS011;6676;45.192;5.722;2022-11-20T00:29:43;3.62;;;1.70;;
13222;SDS011;6676;45.192;5.722;2022-11-20T00:32:35;2.47;;;1.22;;
13222;SDS011;6676;45.192;5.722;2022-11-20T00:35:26;2.62;;;1.55;;
13222;SDS011;6676;45.192;5.722;2022-11-20T00:38:17;2.52;;;1.25;;
13222;SDS011;6676;45.192;5.722;2022-11-20T00:41:09;1.20;;;0.90;;
13222;SDS011;6676;45.192;5.722;2022-11-20T00:44:02;3.05;;;1.22;;
13222;SDS011;6676;45.192;5.722;2022-11-20T00:49:33;3.17;;;1.47;;
13222;SDS011;6676;45.192;5.722;2022-11-20T00:52:24;4.17;;;1.60;;
13222;SDS011;6676;45.192;5.722;2022-11-20T00:55:15;3.25;;;1.32;;
13222;SDS011;6676;45.192;5.722;2022-11-20T00:58:06;2.95;;;1.40;;
13222;SDS011;6676;45.192;5.722;2022-11-20T01:01:03;1.42;;;0.90;;
13222;SDS011;6676;45.192;5.722;2022-11-20T01:06:39;2.85;;;1.50;;
13222;SDS011;6676;45.192;5.722;2022-11-20T01:09:30;3.05;;;1.70;;
13222;SDS011;6676;45.192;5.722;2022-11-20T01:12:21;3.37;;;1.40;;
13222;SDS011;6676;45.192;5.722;2022-11-20T01:17:52;1.82;;;1.20;;
13222;SDS011;6676;45.192;5.722;2022-11-20T01:20:43;3.70;;;1.27;;
13222;SDS011;6676;45.192;5.722;2022-11-20T01:23:35;2.65;;;1.55;;
13222;SDS011;6676;45.192;5.722;2022-11-20T01:29:10;2.08;;;1.60;;
13222;SDS011;6676;45.192;5.722;2022-11-20T01:32:05;3.37;;;1.65;;
13222;SDS011;6676;45.192;5.722;2022-11-20T01:34:56;3.15;;;1.57;;
13222;SDS011;6676;45.192;5.722;2022-11-20T01:40:29;2.60;;;1.20;;
13222;SDS011;6676;45.192;5.722;2022-11-20T01:43:21;2.45;;;1.22;;
13222;SDS011;6676;45.192;5.722;2022-11-20T01:49:02;3.08;;;0.90;;
13222;SDS011;6676;45.192;5.722;2022-11-20T01:51:55;2.40;;;1.10;;
13222;SDS011;6676;45.192;5.722;2022-11-20T01:54:50;1.90;;;0.98;;
13222;SDS011;6676;45.192;5.722;2022-11-20T01:57:43;2.00;;;0.98;;
13222;SDS011;6676;45.192;5.722;2022-11-20T02:00:24;1.85;;;1.15;;
13222;SDS011;6676;45.192;5.722;2022-11-20T02:03:16;1.85;;;1.22;;
13222;SDS011;6676;45.192;5.722;2022-11-20T02:08:49;2.77;;;1.12;;
13222;SDS011;6676;45.192;5.722;2022-11-20T02:14:21;2.12;;;0.80;;
13222;SDS011;6676;45.192;5.722;2022-11-20T02:17:15;1.80;;;0.90;;
13222;SDS011;6676;45.192;5.722;2022-11-20T02:20:07;2.75;;;1.50;;
13222;SDS011;6676;45.192;5.722;2022-11-20T02:25:38;2.05;;;1.40;;
13222;SDS011;6676;45.192;5.722;2022-11-20T02:28:31;2.15;;;1.62;;
13222;SDS011;6676;45.192;5.722;2022-11-20T02:34:01;3.60;;;1.80;;
13222;SDS011;6676;45.192;5.722;2022-11-20T02:36:52;2.47;;;2.02;;
13222;SDS011;6676;45.192;5.722;2022-11-20T02:39:44;3.65;;;1.98;;
13222;SDS011;6676;45.192;5.722;2022-11-20T02:45:17;5.58;;;2.20;;
13222;SDS011;6676;45.192;5.722;2022-11-20T02:48:08;6.67;;;2.90;;
13222;SDS011;6676;45.192;5.722;2022-11-20T02:51:00;3.10;;;2.45;;
13222;SDS011;6676;45.192;5.722;2022-11-20T02:53:51;3.12;;;1.87;;
13222;SDS011;6676;45.192;5.722;2022-11-20T02:59:21;3.83;;;2.20;;
13222;SDS011;6676;45.192;5.722;2022-11-20T03:02:13;3.45;;;2.02;;
13222;SDS011;6676;45.192;5.722;2022-11-20T03:05:05;4.00;;;2.08;;
13222;SDS011;6676;45.192;5.722;2022-11-20T03:07:56;3.55;;;1.90;;
13222;SDS011;6676;45.192;5.722;2022-11-20T03:10:48;2.45;;;1.40;;
13222;SDS011;6676;45.192;5.722;2022-11-20T03:13:39;4.72;;;1.50;;
13222;SDS011;6676;45.192;5.722;2022-11-20T03:16:30;3.08;;;1.50;;
13222;SDS011;6676;45.192;5.722;2022-11-20T03:19:22;4.83;;;1.95;;
13222;SDS011;6676;45.192;5.722;2022-11-20T03:22:13;2.37;;;1.80;;
13222;SDS011;6676;45.192;5.722;2022-11-20T03:25:05;3.00;;;1.40;;
13222;SDS011;6676;45.192;5.722;2022-11-20T03:27:58;3.37;;;1.60;;
13222;SDS011;6676;45.192;5.722;2022-11-20T03:30:49;3.75;;;1.82;;
13222;SDS011;6676;45.192;5.722;2022-11-20T03:33:41;4.50;;;2.35;;
13222;SDS011;6676;45.192;5.722;2022-11-20T03:36:33;3.27;;;2.42;;
13222;SDS011;6676;45.192;5.722;2022-11-20T03:39:26;2.67;;;2.25;;
13222;SDS011;6676;45.192;5.722;2022-11-20T03:42:18;2.65;;;1.95;;
13222;SDS011;6676;45.192;5.722;2022-11-20T03:45:27;4.72;;;2.15;;
13222;SDS011;6676;45.192;5.722;2022-11-20T03:48:19;4.75;;;2.02;;
13222;SDS011;6676;45.192;5.722;2022-11-20T03:53:50;1.87;;;1.52;;
13222;SDS011;6676;45.192;5.722;2022-11-20T03:59:21;2.98;;;1.80;;
13222;SDS011;6676;45.192;5.722;2022-11-20T04:02:13;2.58;;;1.70;;
13222;SDS011;6676;45.192;5.722;2022-11-20T04:05:06;2.20;;;1.60;;
13222;SDS011;6676;45.192;5.722;2022-11-20T04:07:58;3.27;;;1.72;;
13222;SDS011;6676;45.192;5.722;2022-11-20T04:10:49;2.45;;;1.50;;
13222;SDS011;6676;45.192;5.722;2022-11-20T04:13:40;4.30;;;1.67;;
13222;SDS011;6676;45.192;5.722;2022-11-20T04:19:14;4.15;;;1.80;;
13222;SDS011;6676;45.192;5.722;2022-11-20T04:22:06;2.90;;;1.60;;
13222;SDS011;6676;45.192;5.722;2022-11-20T04:24:59;3.30;;;1.65;;
13222;SDS011;6676;45.192;5.722;2022-11-20T04:27:51;4.90;;;1.57;;
13222;SDS011;6676;45.192;5.722;2022-11-20T04:30:43;1.95;;;1.42;;
13222;SDS011;6676;45.192;5.722;2022-11-20T04:33:35;2.40;;;1.60;;
13222;SDS011;6676;45.192;5.722;2022-11-20T04:36:26;3.30;;;1.55;;
13222;SDS011;6676;45.192;5.722;2022-11-20T04:39:19;2.17;;;1.50;;
13222;SDS011;6676;45.192;5.722;2022-11-20T04:44:50;3.10;;;1.45;;
13222;SDS011;6676;45.192;5.722;2022-11-20T04:47:41;2.70;;;1.60;;
13222;SDS011;6676;45.192;5.722;2022-11-20T04:50:32;2.83;;;1.62;;
13222;SDS011;6676;45.192;5.722;2022-11-20T04:53:24;2.05;;;1.55;;
13222;SDS011;6676;45.192;5.722;2022-11-20T04:56:16;3.30;;;1.50;;
13222;SDS011;6676;45.192;5.722;2022-11-20T04:59:07;3.60;;;1.72;;
13222;SDS011;6676;45.192;5.722;2022-11-20T05:01:59;1.92;;;1.40;;
13222;SDS011;6676;45.192;5.722;2022-11-20T05:04:50;3.55;;;1.75;;
13222;SDS011;6676;45.192;5.722;2022-11-20T05:07:42;2.67;;;1.70;;
13222;SDS011;6676;45.192;5.722;2022-11-20T05:10:33;2.27;;;1.60;;
13222;SDS011;6676;45.192;5.722;2022-11-20T05:13:25;2.37;;;1.50;;
13222;SDS011;6676;45.192;5.722;2022-11-20T05:16:18;3.17;;;1.60;;
13222;SDS011;6676;45.192;5.722;2022-11-20T05:19:10;2.50;;;1.55;;
13222;SDS011;6676;45.192;5.722;2022-11-20T05:22:02;2.50;;;1.45;;
13222;SDS011;6676;45.192;5.722;2022-11-20T05:24:54;2.33;;;1.62;;
13222;SDS011;6676;45.192;5.722;2022-11-20T05:30:37;2.70;;;1.75;;
13222;SDS011;6676;45.192;5.722;2022-11-20T05:33:29;3.35;;;1.60;;
13222;SDS011;6676;45.192;5.722;2022-11-20T05:36:20;1.75;;;1.40;;
13222;SDS011;6676;45.192;5.722;2022-11-20T05:39:12;3.85;;;1.60;;
13222;SDS011;6676;45.192;5.722;2022-11-20T05:42:03;2.62;;;1.70;;
13222;SDS011;6676;45.192;5.722;2022-11-20T05:45:13;3.37;;;1.70;;
13222;SDS011;6676;45.192;5.722;2022-11-20T05:48:05;2.95;;;1.40;;
13222;SDS011;6676;45.192;5.722;2022-11-20T05:50:57;2.02;;;1.47;;
13222;SDS011;6676;45.192;5.722;2022-11-20T05:53:49;2.65;;;1.40;;
13222;SDS011;6676;45.192;5.722;2022-11-20T05:56:41;3.33;;;1.62;;
13222;SDS011;6676;45.192;5.722;2022-11-20T05:59:32;1.60;;;1.30;;
13222;SDS011;6676;45.192;5.722;2022-11-20T06:02:24;3.25;;;1.55;;
13222;SDS011;6676;45.192;5.722;2022-11-20T06:05:16;1.95;;;1.50;;
13222;SDS011;6676;45.192;5.722;2022-11-20T06:08:07;2.25;;;1.82;;
13222;SDS011;6676;45.192;5.722;2022-11-20T06:11:02;3.60;;;1.32;;
13222;SDS011;6676;45.192;5.722;2022-11-20T06:13:55;2.72;;;1.50;;
13222;SDS011;6676;45.192;5.722;2022-11-20T06:19:25;2.12;;;1.30;;
13222;SDS011;6676;45.192;5.722;2022-11-20T06:22:16;4.08;;;1.70;;
13222;SDS011;6676;45.192;5.722;2022-11-20T06:25:08;4.80;;;1.80;;
13222;SDS011;6676;45.192;5.722;2022-11-20T06:27:59;3.22;;;1.50;;
13222;SDS011;6676;45.192;5.722;2022-11-20T06:30:51;2.70;;;1.37;;
13222;SDS011;6676;45.192;5.722;2022-11-20T06:36:29;2.50;;;1.70;;
13222;SDS011;6676;45.192;5.722;2022-11-20T06:39:20;5.83;;;1.90;;
13222;SDS011;6676;45.192;5.722;2022-11-20T06:42:11;2.62;;;1.60;;
13222;SDS011;6676;45.192;5.722;2022-11-20T06:45:03;2.70;;;1.50;;
13222;SDS011;6676;45.192;5.722;2022-11-20T06:47:57;2.92;;;1.77;;
13222;SDS011;6676;45.192;5.722;2022-11-20T06:50:48;3.60;;;1.75;;
13222;SDS011;6676;45.192;5.722;2022-11-20T06:53:40;3.62;;;2.00;;
13222;SDS011;6676;45.192;5.722;2022-11-20T06:56:31;3.02;;;1.90;;
13222;SDS011;6676;45.192;5.722;2022-11-20T06:59:22;2.77;;;1.85;;
13222;SDS011;6676;45.192;5.722;2022-11-20T07:02:14;4.05;;;2.37;;
13222;SDS011;6676;45.192;5.722;2022-11-20T07:05:07;5.65;;;3.40;;
13222;SDS011;6676;45.192;5.722;2022-11-20T07:07:58;4.67;;;3.17;;
13222;SDS011;6676;45.192;5.722;2022-11-20T07:10:51;8.08;;;4.00;;
13222;SDS011;6676;45.192;5.722;2022-11-20T07:13:42;6.58;;;3.15;;
13222;SDS011;6676;45.192;5.722;2022-11-20T07:20:00;4.45;;;2.60;;
13222;SDS011;6676;45.192;5.722;2022-11-20T07:22:53;3.95;;;2.52;;
13222;SDS011;6676;45.192;5.722;2022-11-20T07:25:45;7.45;;;2.75;;
13222;SDS011;6676;45.192;5.722;2022-11-20T07:31:15;4.90;;;2.55;;
13222;SDS011;6676;45.192;5.722;2022-11-20T07:34:07;10.90;;;2.67;;
13222;SDS011;6676;45.192;5.722;2022-11-20T07:39:37;7.45;;;2.40;;
13222;SDS011;6676;45.192;5.722;2022-11-20T07:42:29;5.75;;;2.60;;
13222;SDS011;6676;45.192;5.722;2022-11-20T07:45:24;5.97;;;2.33;;
13222;SDS011;6676;45.192;5.722;2022-11-20T07:48:15;3.87;;;2.72;;
13222;SDS011;6676;45.192;5.722;2022-11-20T07:51:07;5.67;;;2.60;;
13222;SDS011;6676;45.192;5.722;2022-11-20T07:53:58;5.15;;;2.47;;
13222;SDS011;6676;45.192;5.722;2022-11-20T07:56:52;4.05;;;2.47;;
13222;SDS011;6676;45.192;5.722;2022-11-20T07:59:33;3.83;;;2.40;;
13222;SDS011;6676;45.192;5.722;2022-11-20T08:02:25;5.20;;;2.40;;
13222;SDS011;6676;45.192;5.722;2022-11-20T08:05:19;5.33;;;3.08;;
13222;SDS011;6676;45.192;5.722;2022-11-20T08:08:10;5.08;;;2.90;;
13222;SDS011;6676;45.192;5.722;2022-11-20T08:11:02;4.10;;;2.47;;
13222;SDS011;6676;45.192;5.722;2022-11-20T08:14:11;3.62;;;2.35;;
13222;SDS011;6676;45.192;5.722;2022-11-20T08:17:02;4.08;;;2.08;;
13222;SDS011;6676;45.192;5.722;2022-11-20T08:19:54;4.40;;;2.10;;
13222;SDS011;6676;45.192;5.722;2022-11-20T08:22:45;4.03;;;2.20;;
13222;SDS011;6676;45.192;5.722;2022-11-20T08:25:36;4.87;;;2.20;;
13222;SDS011;6676;45.192;5.722;2022-11-20T08:28:28;4.53;;;2.45;;
13222;SDS011;6676;45.192;5.722;2022-11-20T08:31:20;4.50;;;2.37;;
13222;SDS011;6676;45.192;5.722;2022-11-20T08:34:02;3.35;;;2.30;;
13222;SDS011;6676;45.192;5.722;2022-11-20T08:36:55;4.15;;;3.10;;
13222;SDS011;6676;45.192;5.722;2022-11-20T08:39:46;4.10;;;2.75;;
13222;SDS011;6676;45.192;5.722;2022-11-20T08:45:16;3.05;;;2.20;;
13222;SDS011;6676;45.192;5.722;2022-11-20T08:48:08;2.70;;;2.10;;
13222;SDS011;6676;45.192;5.722;2022-11-20T08:51:00;5.12;;;2.30;;
13222;SDS011;6676;45.192;5.722;2022-11-20T08:53:52;4.35;;;2.22;;
13222;SDS011;6676;45.192;5.722;2022-11-20T08:59:22;3.47;;;2.20;;
13222;SDS011;6676;45.192;5.722;2022-11-20T09:04:55;3.85;;;2.70;;
13222;SDS011;6676;45.192;5.722;2022-11-20T09:07:46;3.45;;;2.42;;
13222;SDS011;6676;45.192;5.722;2022-11-20T09:10:37;4.03;;;2.25;;
13222;SDS011;6676;45.192;5.722;2022-11-20T09:13:29;2.90;;;2.50;;
13222;SDS011;6676;45.192;5.722;2022-11-20T09:16:21;5.97;;;2.80;;
13222;SDS011;6676;45.192;5.722;2022-11-20T09:19:01;3.10;;;2.40;;
13222;SDS011;6676;45.192;5.722;2022-11-20T09:21:55;3.42;;;2.30;;
13222;SDS011;6676;45.192;5.722;2022-11-20T09:24:49;3.40;;;2.40;;
13222;SDS011;6676;45.192;5.722;2022-11-20T09:27:40;2.92;;;2.10;;
13222;SDS011;6676;45.192;5.722;2022-11-20T09:30:33;3.92;;;2.30;;
13222;SDS011;6676;45.192;5.722;2022-11-20T09:33:19;4.22;;;2.25;;
13222;SDS011;6676;45.192;5.722;2022-11-20T09:36:10;2.30;;;1.40;;
13222;SDS011;6676;45.192;5.722;2022-11-20T09:39:02;1.85;;;1.50;;
13222;SDS011;6676;45.192;5.722;2022-11-20T09:42:10;1.35;;;1.25;;
13222;SDS011;6676;45.192;5.722;2022-11-20T09:45:10;1.70;;;1.35;;
13222;SDS011;6676;45.192;5.722;2022-11-20T09:48:14;3.52;;;1.35;;
13222;SDS011;6676;45.192;5.722;2022-11-20T09:51:16;2.10;;;1.37;;
13222;SDS011;6676;45.192;5.722;2022-11-20T09:54:00;2.60;;;1.77;;
13222;SDS011;6676;45.192;5.722;2022-11-20T09:59:38;3.33;;;1.42;;
13222;SDS011;6676;45.192;5.722;2022-11-20T10:02:30;2.27;;;1.50;;
13222;SDS011;6676;45.192;5.722;2022-11-20T10:05:25;2.65;;;1.20;;
13222;SDS011;6676;45.192;5.722;2022-11-20T10:08:21;2.40;;;1.50;;
13222;SDS011;6676;45.192;5.722;2022-11-20T10:11:18;3.42;;;1.40;;
13222;SDS011;6676;45.192;5.722;2022-11-20T10:13:59;2.45;;;1.42;;
13222;SDS011;6676;45.192;5.722;2022-11-20T10:16:54;1.95;;;1.20;;
13222;SDS011;6676;45.192;5.722;2022-11-20T10:19:54;2.50;;;1.20;;
13222;SDS011;6676;45.192;5.722;2022-11-20T10:22:54;2.27;;;0.90;;
13222;SDS011;6676;45.192;5.722;2022-11-20T10:25:49;2.00;;;0.70;;
13222;SDS011;6676;45.192;5.722;2022-11-20T10:28:46;1.77;;;1.02;;
13222;SDS011;6676;45.192;5.722;2022-11-20T10:34:26;2.50;;;1.05;;
13222;SDS011;6676;45.192;5.722;2022-11-20T10:37:21;2.20;;;1.30;;
13222;SDS011;6676;45.192;5.722;2022-11-20T10:40:03;1.47;;;1.10;;
13222;SDS011;6676;45.192;5.722;2022-11-20T10:42:57;1.50;;;1.35;;
13222;SDS011;6676;45.192;5.722;2022-11-20T10:45:52;3.30;;;1.37;;
13222;SDS011;6676;45.192;5.722;2022-11-20T10:48:45;2.45;;;1.20;;
13222;SDS011;6676;45.192;5.722;2022-11-20T10:54:20;3.65;;;1.17;;
13222;SDS011;6676;45.192;5.722;2022-11-20T11:00:00;2.70;;;1.20;;
13222;SDS011;6676;45.192;5.722;2022-11-20T11:05:46;0.98;;;0.75;;
13222;SDS011;6676;45.192;5.722;2022-11-20T11:08:40;1.45;;;0.98;;
13222;SDS011;6676;45.192;5.722;2022-11-20T11:14:12;2.35;;;1.40;;
13222;SDS011;6676;45.192;5.722;2022-11-20T11:17:04;3.30;;;1.35;;
13222;SDS011;6676;45.192;5.722;2022-11-20T11:20:15;2.00;;;1.25;;
13222;SDS011;6676;45.192;5.722;2022-11-20T11:23:22;1.92;;;1.20;;
13222;SDS011;6676;45.192;5.722;2022-11-20T11:29:03;2.55;;;1.12;;
13222;SDS011;6676;45.192;5.722;2022-11-20T11:32:04;1.82;;;0.95;;
13222;SDS011;6676;45.192;5.722;2022-11-20T11:34:59;2.17;;;1.00;;
13222;SDS011;6676;45.192;5.722;2022-11-20T11:37:52;2.12;;;1.12;;
13222;SDS011;6676;45.192;5.722;2022-11-20T11:40:46;1.55;;;0.98;;
13222;SDS011;6676;45.192;5.722;2022-11-20T11:43:37;1.47;;;0.93;;
13222;SDS011;6676;45.192;5.722;2022-11-20T11:46:49;1.57;;;0.90;;
13222;SDS011;6676;45.192;5.722;2022-11-20T11:49:29;1.27;;;0.90;;
13222;SDS011;6676;45.192;5.722;2022-11-20T11:52:21;2.15;;;0.93;;
13222;SDS011;6676;45.192;5.722;2022-11-20T11:55:02;3.37;;;1.00;;
13222;SDS011;6676;45.192;5.722;2022-11-20T11:58:02;1.80;;;0.80;;
13222;SDS011;6676;45.192;5.722;2022-11-20T12:01:00;2.65;;;0.98;;
13222;SDS011;6676;45.192;5.722;2022-11-20T12:03:58;1.37;;;0.90;;
13222;SDS011;6676;45.192;5.722;2022-11-20T12:09:33;0.75;;;0.65;;
13222;SDS011;6676;45.192;5.722;2022-11-20T12:15:07;2.05;;;0.90;;
13222;SDS011;6676;45.192;5.722;2022-11-20T12:17:49;1.30;;;0.90;;
13222;SDS011;6676;45.192;5.722;2022-11-20T12:20:41;2.12;;;0.98;;
13222;SDS011;6676;45.192;5.722;2022-11-20T12:23:37;1.25;;;0.72;;
13222;SDS011;6676;45.192;5.722;2022-11-20T12:26:35;0.93;;;0.80;;
13222;SDS011;6676;45.192;5.722;2022-11-20T12:29:38;1.80;;;0.80;;
13222;SDS011;6676;45.192;5.722;2022-11-20T12:32:45;2.15;;;0.90;;
13222;SDS011;6676;45.192;5.722;2022-11-20T12:42:29;1.95;;;0.90;;
13222;SDS011;6676;45.192;5.722;2022-11-20T12:48:46;1.47;;;0.72;;
13222;SDS011;6676;45.192;5.722;2022-11-20T12:55:12;2.65;;;0.80;;
13222;SDS011;6676;45.192;5.722;2022-11-20T12:58:08;2.50;;;1.00;;
13222;SDS011;6676;45.192;5.722;2022-11-20T13:01:03;1.98;;;1.10;;
13222;SDS011;6676;45.192;5.722;2022-11-20T13:03:55;2.12;;;1.10;;
13222;SDS011;6676;45.192;5.722;2022-11-20T13:06:51;1.10;;;1.00;;
13222;SDS011;6676;45.192;5.722;2022-11-20T13:09:44;1.47;;;1.00;;
13222;SDS011;6676;45.192;5.722;2022-11-20T13:12:39;1.70;;;1.00;;
13222;SDS011;6676;45.192;5.722;2022-11-20T13:15:35;1.72;;;1.15;;
13222;SDS011;6676;45.192;5.722;2022-11-20T13:18:35;1.40;;;0.88;;
13222;SDS011;6676;45.192;5.722;2022-11-20T13:21:36;1.20;;;0.80;;
13222;SDS011;6676;45.192;5.722;2022-11-20T13:27:20;1.85;;;0.80;;
13222;SDS011;6676;45.192;5.722;2022-11-20T13:30:15;0.98;;;0.80;;
13222;SDS011;6676;45.192;5.722;2022-11-20T13:33:21;1.47;;;1.00;;
13222;SDS011;6676;45.192;5.722;2022-11-20T13:36:21;1.32;;;0.90;;
13222;SDS011;6676;45.192;5.722;2022-11-20T13:39:23;2.00;;;0.95;;
13222;SDS011;6676;45.192;5.722;2022-11-20T13:42:20;1.00;;;0.90;;
13222;SDS011;6676;45.192;5.722;2022-11-20T13:45:22;2.35;;;1.00;;
13222;SDS011;6676;45.192;5.722;2022-11-20T13:48:20;1.27;;;0.80;;
13222;SDS011;6676;45.192;5.722;2022-11-20T13:51:16;1.55;;;0.90;;
13222;SDS011;6676;45.192;5.722;2022-11-20T13:57:59;1.35;;;0.90;;
13222;SDS011;6676;45.192;5.722;2022-11-20T14:00:56;1.98;;;0.90;;
13222;SDS011;6676;45.192;5.722;2022-11-20T14:03:50;0.98;;;0.70;;
13222;SDS011;6676;45.192;5.722;2022-11-20T14:06:45;2.05;;;0.90;;
13222;SDS011;6676;45.192;5.722;2022-11-20T14:09:38;1.40;;;0.70;;
13222;SDS011;6676;45.192;5.722;2022-11-20T14:12:32;0.98;;;0.70;;
13222;SDS011;6676;45.192;5.722;2022-11-20T14:15:28;2.00;;;0.80;;
13222;SDS011;6676;45.192;5.722;2022-11-20T14:18:22;1.70;;;0.60;;
13222;SDS011;6676;45.192;5.722;2022-11-20T14:21:21;1.25;;;0.60;;
13222;SDS011;6676;45.192;5.722;2022-11-20T14:24:13;1.42;;;0.80;;
13222;SDS011;6676;45.192;5.722;2022-11-20T14:27:11;2.30;;;0.60;;
13222;SDS011;6676;45.192;5.722;2022-11-20T14:30:05;0.95;;;0.70;;
13222;SDS011;6676;45.192;5.722;2022-11-20T14:33:02;1.62;;;0.55;;
13222;SDS011;6676;45.192;5.722;2022-11-20T14:35:55;1.67;;;0.93;;
13222;SDS011;6676;45.192;5.722;2022-11-20T14:38:48;2.30;;;0.70;;
13222;SDS011;6676;45.192;5.722;2022-11-20T14:41:49;1.45;;;0.88;;
13222;SDS011;6676;45.192;5.722;2022-11-20T14:44:35;1.25;;;0.95;;
13222;SDS011;6676;45.192;5.722;2022-11-20T14:47:27;1.85;;;0.90;;
13222;SDS011;6676;45.192;5.722;2022-11-20T14:50:22;1.67;;;0.85;;
13222;SDS011;6676;45.192;5.722;2022-11-20T14:53:21;1.75;;;0.70;;
13222;SDS011;6676;45.192;5.722;2022-11-20T14:56:02;3.00;;;0.98;;
13222;SDS011;6676;45.192;5.722;2022-11-20T14:58:57;0.88;;;0.78;;
13222;SDS011;6676;45.192;5.722;2022-11-20T15:01:54;1.90;;;1.02;;
13222;SDS011;6676;45.192;5.722;2022-11-20T15:04:47;1.07;;;0.80;;
13222;SDS011;6676;45.192;5.722;2022-11-20T15:07:40;1.57;;;0.85;;
13222;SDS011;6676;45.192;5.722;2022-11-20T15:10:34;1.00;;;0.90;;
13222;SDS011;6676;45.192;5.722;2022-11-20T15:13:29;1.82;;;1.00;;
13222;SDS011;6676;45.192;5.722;2022-11-20T15:16:21;2.98;;;0.98;;
13222;SDS011;6676;45.192;5.722;2022-11-20T15:19:16;2.27;;;1.00;;
13222;SDS011;6676;45.192;5.722;2022-11-20T15:22:11;3.25;;;1.10;;
13222;SDS011;6676;45.192;5.722;2022-11-20T15:25:07;1.40;;;1.02;;
13222;SDS011;6676;45.192;5.722;2022-11-20T15:28:04;2.65;;;1.30;;
13222;SDS011;6676;45.192;5.722;2022-11-20T15:31:00;1.77;;;1.00;;
13222;SDS011;6676;45.192;5.722;2022-11-20T15:33:53;1.75;;;1.00;;
13222;SDS011;6676;45.192;5.722;2022-11-20T15:36:44;1.40;;;1.30;;
13222;SDS011;6676;45.192;5.722;2022-11-20T15:39:36;1.55;;;1.10;;
13222;SDS011;6676;45.192;5.722;2022-11-20T15:42:28;3.52;;;1.12;;
13222;SDS011;6676;45.192;5.722;2022-11-20T15:45:19;2.58;;;1.50;;
13222;SDS011;6676;45.192;5.722;2022-11-20T15:48:12;1.50;;;1.02;;
13222;SDS011;6676;45.192;5.722;2022-11-20T15:51:06;2.12;;;1.30;;
13222;SDS011;6676;45.192;5.722;2022-11-20T15:54:05;2.42;;;1.20;;
13222;SDS011;6676;45.192;5.722;2022-11-20T15:57:00;2.42;;;1.20;;
13222;SDS011;6676;45.192;5.722;2022-11-20T15:59:52;2.12;;;1.37;;
13222;SDS011;6676;45.192;5.722;2022-11-20T16:02:43;2.37;;;1.77;;
13222;SDS011;6676;45.192;5.722;2022-11-20T16:05:35;5.85;;;2.12;;
13222;SDS011;6676;45.192;5.722;2022-11-20T16:08:26;2.90;;;1.98;;
13222;SDS011;6676;45.192;5.722;2022-11-20T16:11:17;2.37;;;1.57;;
13222;SDS011;6676;45.192;5.722;2022-11-20T16:14:09;2.40;;;1.65;;
13222;SDS011;6676;45.192;5.722;2022-11-20T16:20:18;3.05;;;2.00;;
13222;SDS011;6676;45.192;5.722;2022-11-20T16:23:09;2.20;;;1.42;;
13222;SDS011;6676;45.192;5.722;2022-11-20T16:26:00;4.15;;;2.40;;
13222;SDS011;6676;45.192;5.722;2022-11-20T16:29:00;2.95;;;1.65;;
13222;SDS011;6676;45.192;5.722;2022-11-20T16:31:53;3.95;;;1.82;;
13222;SDS011;6676;45.192;5.722;2022-11-20T16:34:46;2.58;;;1.80;;
13222;SDS011;6676;45.192;5.722;2022-11-20T16:37:37;5.65;;;1.90;;
13222;SDS011;6676;45.192;5.722;2022-11-20T16:40:29;3.25;;;2.20;;
13222;SDS011;6676;45.192;5.722;2022-11-20T16:43:20;3.35;;;2.20;;
13222;SDS011;6676;45.192;5.722;2022-11-20T16:46:12;3.65;;;1.92;;
13222;SDS011;6676;45.192;5.722;2022-11-20T16:49:04;3.05;;;2.00;;
13222;SDS011;6676;45.192;5.722;2022-11-20T16:51:57;3.65;;;2.00;;
13222;SDS011;6676;45.192;5.722;2022-11-20T16:54:49;2.62;;;1.90;;
13222;SDS011;6676;45.192;5.722;2022-11-20T16:57:40;3.98;;;2.10;;
13222;SDS011;6676;45.192;5.722;2022-11-20T17:00:34;4.10;;;2.02;;
13222;SDS011;6676;45.192;5.722;2022-11-20T17:03:25;5.55;;;2.80;;
13222;SDS011;6676;45.192;5.722;2022-11-20T17:06:18;3.52;;;2.37;;
13222;SDS011;6676;45.192;5.722;2022-11-20T17:09:11;4.37;;;2.45;;
13222;SDS011;6676;45.192;5.722;2022-11-20T17:12:03;3.15;;;2.20;;
13222;SDS011;6676;45.192;5.722;2022-11-20T17:14:56;3.47;;;2.45;;
13222;SDS011;6676;45.192;5.722;2022-11-20T17:17:47;4.83;;;2.70;;
13222;SDS011;6676;45.192;5.722;2022-11-20T17:20:38;4.67;;;2.83;;
13222;SDS011;6676;45.192;5.722;2022-11-20T17:23:30;2.90;;;2.20;;
13222;SDS011;6676;45.192;5.722;2022-11-20T17:26:22;4.10;;;2.60;;
13222;SDS011;6676;45.192;5.722;2022-11-20T17:29:16;4.78;;;2.42;;
13222;SDS011;6676;45.192;5.722;2022-11-20T17:32:10;4.45;;;2.70;;
13222;SDS011;6676;45.192;5.722;2022-11-20T17:35:01;3.00;;;2.22;;
13222;SDS011;6676;45.192;5.722;2022-11-20T17:37:54;4.12;;;2.45;;
13222;SDS011;6676;45.192;5.722;2022-11-20T17:40:46;4.05;;;2.40;;
13222;SDS011;6676;45.192;5.722;2022-11-20T17:43:37;4.22;;;2.47;;
13222;SDS011;6676;45.192;5.722;2022-11-20T17:46:30;3.87;;;2.40;;
13222;SDS011;6676;45.192;5.722;2022-11-20T17:49:22;5.03;;;3.67;;
13222;SDS011;6676;45.192;5.722;2022-11-20T17:52:14;3.70;;;3.22;;
13222;SDS011;6676;45.192;5.722;2022-11-20T17:55:06;2.60;;;2.40;;
13222;SDS011;6676;45.192;5.722;2022-11-20T17:57:58;3.12;;;2.58;;
13222;SDS011;6676;45.192;5.722;2022-11-20T18:00:51;3.35;;;2.98;;
13222;SDS011;6676;45.192;5.722;2022-11-20T18:03:42;5.08;;;3.25;;
13222;SDS011;6676;45.192;5.722;2022-11-20T18:06:34;5.33;;;3.02;;
13222;SDS011;6676;45.192;5.722;2022-11-20T18:09:25;3.15;;;1.72;;
13222;SDS011;6676;45.192;5.722;2022-11-20T18:12:16;2.27;;;1.67;;
13222;SDS011;6676;45.192;5.722;2022-11-20T18:15:08;1.60;;;1.20;;
13222;SDS011;6676;45.192;5.722;2022-11-20T18:17:59;0.90;;;0.90;;
13222;SDS011;6676;45.192;5.722;2022-11-20T18:20:52;1.37;;;0.60;;
13222;SDS011;6676;45.192;5.722;2022-11-20T18:23:43;0.53;;;0.40;;
13222;SDS011;6676;45.192;5.722;2022-11-20T18:26:36;0.60;;;0.50;;
13222;SDS011;6676;45.192;5.722;2022-11-20T18:29:29;0.68;;;0.68;;
13222;SDS011;6676;45.192;5.722;2022-11-20T18:34:58;1.05;;;0.80;;
13222;SDS011;6676;45.192;5.722;2022-11-20T18:37:50;0.90;;;0.75;;
13222;SDS011;6676;45.192;5.722;2022-11-20T18:40:40;1.85;;;1.10;;
13222;SDS011;6676;45.192;5.722;2022-11-20T18:46:10;1.82;;;1.52;;
13222;SDS011;6676;45.192;5.722;2022-11-20T18:49:01;1.50;;;1.22;;
13222;SDS011;6676;45.192;5.722;2022-11-20T18:51:52;2.22;;;1.50;;
13222;SDS011;6676;45.192;5.722;2022-11-20T18:54:43;2.17;;;1.17;;
13222;SDS011;6676;45.192;5.722;2022-11-20T18:57:34;1.85;;;1.10;;
13222;SDS011;6676;45.192;5.722;2022-11-20T19:00:26;2.08;;;1.40;;
13222;SDS011;6676;45.192;5.722;2022-11-20T19:03:17;4.92;;;3.55;;
13222;SDS011;6676;45.192;5.722;2022-11-20T19:06:12;4.55;;;3.30;;
13222;SDS011;6676;45.192;5.722;2022-11-20T19:09:04;4.05;;;2.47;;
13222;SDS011;6676;45.192;5.722;2022-11-20T19:11:56;8.20;;;4.55;;
13222;SDS011;6676;45.192;5.722;2022-11-20T19:14:48;4.42;;;3.37;;
13222;SDS011;6676;45.192;5.722;2022-11-20T19:17:40;4.47;;;2.95;;
13222;SDS011;6676;45.192;5.722;2022-11-20T19:20:31;3.05;;;2.17;;
13222;SDS011;6676;45.192;5.722;2022-11-20T19:23:25;3.12;;;1.92;;
13222;SDS011;6676;45.192;5.722;2022-11-20T19:26:17;2.92;;;1.45;;
13222;SDS011;6676;45.192;5.722;2022-11-20T19:29:11;3.25;;;1.80;;
13222;SDS011;6676;45.192;5.722;2022-11-20T19:32:03;1.85;;;1.40;;
13222;SDS011;6676;45.192;5.722;2022-11-20T19:34:55;2.70;;;1.20;;
13222;SDS011;6676;45.192;5.722;2022-11-20T19:37:46;3.05;;;1.30;;
13222;SDS011;6676;45.192;5.722;2022-11-20T19:40:40;2.02;;;1.20;;
13222;SDS011;6676;45.192;5.722;2022-11-20T19:43:31;2.58;;;1.37;;
13222;SDS011;6676;45.192;5.722;2022-11-20T19:46:11;1.82;;;1.20;;